Time;durP1;ratioP1;P1;durP2;ratioP2;P2;SDS_P1;SDS_P2;PMS_P1;PMS_P2;Temp;Humidity;BMP_temperature;BMP_pressure;BME280_temperature;BME280_humidity;BME280_pressure;Samples;Min_cycle;Max_cycle;Signal;HPM_P1;HPM_P2
2023/01/17 00:01:22;;;;;;;22.58;17.13;;;12.50;99.90;;;;;;4592356;19;20011;-29
2023/01/17 00:02:54;;;;;;;21.97;16.93;;;12.50;99.90;;;;;;4594802;19;20016;-30
2023/01/17 00:10:06;;;;;;;18.50;14.73;;;12.50;99.90;;;;;;4594416;19;21061;-30
2023/01/17 00:11:37;;;;;;;18.17;15.53;;;12.50;99.90;;;;;;4591744;19;20475;-32
2023/01/17 00:13:08;;;;;;;15.93;13.82;;;12.50;99.90;;;;;;4592361;19;20457;-31
2023/01/17 00:14:40;;;;;;;20.10;16.00;;;12.50;99.90;;;;;;4593278;19;20011;-30
2023/01/17 00:16:11;;;;;;;19.17;15.43;;;12.50;99.90;;;;;;4594533;19;20083;-31
2023/01/17 00:17:42;;;;;;;23.52;17.38;;;12.50;99.90;;;;;;4593171;19;20021;-33
2023/01/17 00:26:33;;;;;;;34.50;24.27;;;12.60;99.90;;;;;;4593765;19;20018;-31
2023/01/17 01:34:42;;;;;;;16.17;13.80;;;12.50;99.90;;;;;;4592520;19;20010;-32
2023/01/17 01:36:14;;;;;;;17.85;14.93;;;12.50;99.90;;;;;;4591888;19;20011;-33
2023/01/17 01:37:45;;;;;;;16.10;13.90;;;12.50;99.90;;;;;;4591990;19;20023;-30
2023/01/17 01:39:16;;;;;;;15.57;13.15;;;12.50;99.90;;;;;;4592624;19;20345;-31
2023/01/17 01:40:49;;;;;;;15.55;13.23;;;12.50;99.90;;;;;;4592020;19;20065;-30
2023/01/17 01:42:21;;;;;;;17.20;14.80;;;12.50;99.90;;;;;;4590647;19;20006;-32
2023/01/17 01:43:53;;;;;;;17.08;15.07;;;12.50;99.90;;;;;;4590743;19;20479;-30
2023/01/17 01:45:28;;;;;;;18.50;15.10;;;12.50;99.90;;;;;;4590729;19;20010;-31
2023/01/17 01:47:00;;;;;;;20.43;16.43;;;12.50;99.90;;;;;;4591387;19;20729;-31
2023/01/17 01:48:56;;;;;;;18.58;15.13;;;12.40;99.90;;;;;;4590435;19;21165;-30
2023/01/17 01:50:28;;;;;;;17.90;14.97;;;12.40;99.90;;;;;;4589339;19;20035;-31
2023/01/17 01:52:00;;;;;;;16.53;13.80;;;12.50;99.90;;;;;;4589775;19;21049;-30
2023/01/17 01:53:32;;;;;;;16.73;14.60;;;12.50;99.90;;;;;;4589699;19;20425;-30
2023/01/17 01:55:04;;;;;;;;;;;12.40;99.90;;;;;;4589988;19;20428;-31
2023/01/17 01:56:35;;;;;;;;;;;12.50;99.90;;;;;;4590270;19;19915;-30
2023/01/17 01:58:19;;;;;;;19.83;15.70;;;12.50;99.90;;;;;;4589304;19;19911;-31
2023/01/17 01:59:56;;;;;;;17.07;14.27;;;12.50;99.90;;;;;;4589203;19;20428;-33
2023/01/17 02:01:28;;;;;;;18.47;15.00;;;12.50;99.90;;;;;;4588167;19;20433;-31
2023/01/17 02:03:01;;;;;;;18.23;15.10;;;12.50;99.90;;;;;;4589048;19;20484;-32
2023/01/17 02:04:32;;;;;;;17.37;14.37;;;12.50;99.90;;;;;;4589402;19;20014;-31
2023/01/17 02:06:24;;;;;;;17.65;14.75;;;12.50;99.90;;;;;;4589525;19;20785;-33
2023/01/17 02:08:07;;;;;;;17.20;14.80;;;12.40;99.90;;;;;;4589366;19;20007;-30
2023/01/17 02:09:38;;;;;;;16.43;14.27;;;12.50;99.90;;;;;;4589049;19;20382;-31
2023/01/17 02:11:10;;;;;;;17.73;14.80;;;12.40;99.90;;;;;;4589044;19;20018;-33
2023/01/17 02:12:41;;;;;;;;;;;12.50;99.90;;;;;;4589964;19;20023;-33
2023/01/17 02:14:19;;;;;;;17.20;14.90;;;12.40;99.90;;;;;;4589322;19;19923;-31
2023/01/17 02:16:09;;;;;;;16.80;14.40;;;12.50;99.90;;;;;;4588796;19;20689;-31
2023/01/17 02:18:07;;;;;;;17.93;14.77;;;12.50;99.90;;;;;;4589001;19;20433;-31
2023/01/17 02:19:45;;;;;;;19.03;15.30;;;12.40;99.90;;;;;;4588936;19;20561;-31
2023/01/17 02:21:27;;;;;;;17.03;14.50;;;12.40;99.90;;;;;;4585863;19;20546;-30
2023/01/17 02:23:44;;;;;;;16.83;14.10;;;12.50;99.90;;;;;;4588050;19;20502;-30
2023/01/17 02:25:24;;;;;;;18.07;14.67;;;12.40;99.90;;;;;;4588722;19;20428;-33
2023/01/17 02:27:30;;;;;;;18.30;15.53;;;12.50;99.90;;;;;;4588879;19;20024;-31
2023/01/17 02:29:05;;;;;;;17.67;13.80;;;12.50;99.90;;;;;;4588495;19;20491;-33
2023/01/17 02:30:39;;;;;;;16.77;14.13;;;12.50;99.90;;;;;;4588204;19;20753;-30
2023/01/17 02:32:15;;;;;;;18.30;15.00;;;12.50;99.90;;;;;;4588473;19;20432;-30
2023/01/17 02:33:52;;;;;;;19.20;14.20;;;12.50;99.90;;;;;;4588504;19;20044;-30
2023/01/17 02:35:27;;;;;;;18.23;14.57;;;12.40;99.90;;;;;;4588369;19;20818;-30
2023/01/17 02:37:10;;;;;;;17.53;14.33;;;12.50;99.90;;;;;;4588500;19;21065;-33
2023/01/17 02:38:51;;;;;;;17.30;14.03;;;12.50;99.90;;;;;;4588372;19;20586;-31
2023/01/17 02:40:25;;;;;;;18.67;15.23;;;12.50;99.90;;;;;;4588216;19;20424;-30
2023/01/17 02:42:00;;;;;;;16.87;13.77;;;12.40;99.90;;;;;;4588757;19;20429;-31
2023/01/17 02:43:31;;;;;;;17.77;13.90;;;12.50;99.90;;;;;;4588257;19;20433;-33
2023/01/17 02:45:03;;;;;;;17.15;13.73;;;12.50;99.90;;;;;;4587938;19;20106;-32
2023/01/17 02:46:52;;;;;;;15.33;13.50;;;12.40;99.90;;;;;;4587952;19;20047;-33
2023/01/17 02:48:24;;;;;;;14.43;12.27;;;12.50;99.90;;;;;;4588059;19;20368;-31
2023/01/17 02:50:07;;;;;;;14.17;12.67;;;12.50;99.90;;;;;;4588438;19;20441;-33
2023/01/17 02:51:54;;;;;;;18.10;12.93;;;12.40;99.90;;;;;;4588052;19;20440;-31
2023/01/17 02:53:44;;;;;;;17.30;13.93;;;12.50;99.90;;;;;;4587929;19;20459;-32
2023/01/17 02:55:21;;;;;;;18.10;14.63;;;12.50;99.90;;;;;;4588198;19;20428;-30
2023/01/17 02:57:01;;;;;;;18.00;14.07;;;12.50;99.90;;;;;;4588042;19;20524;-30
2023/01/17 02:59:08;;;;;;;16.50;12.97;;;12.40;99.90;;;;;;4588006;19;20003;-31
2023/01/17 03:01:10;;;;;;;23.47;16.10;;;12.40;99.90;;;;;;4587603;19;20068;-31
2023/01/17 03:02:56;;;;;;;24.58;16.60;;;12.40;99.90;;;;;;4587946;19;20453;-31
2023/01/17 03:04:39;;;;;;;23.67;16.03;;;12.50;99.90;;;;;;4588293;19;20022;-30
2023/01/17 03:06:16;;;;;;;25.23;16.47;;;12.50;99.90;;;;;;4588242;19;20441;-30
2023/01/17 03:07:48;;;;;;;23.17;16.37;;;12.40;99.90;;;;;;4587959;19;20504;-33
2023/01/17 03:09:19;;;;;;;20.23;14.68;;;12.40;99.90;;;;;;4587874;19;20449;-33
2023/01/17 03:10:50;;;;;;;18.98;14.05;;;12.50;99.90;;;;;;4588043;19;19998;-31
2023/01/17 03:12:22;;;;;;;16.60;12.80;;;12.40;99.90;;;;;;4587929;19;20041;-31
2023/01/17 03:13:56;;;;;;;16.45;12.75;;;12.40;99.90;;;;;;4587523;19;20042;-31
2023/01/17 03:15:27;;;;;;;14.30;12.53;;;12.40;99.90;;;;;;4587684;19;20007;-30
2023/01/17 03:16:59;;;;;;;15.15;12.48;;;12.40;99.90;;;;;;4588185;19;20447;-33
2023/01/17 03:18:30;;;;;;;15.70;12.45;;;12.50;99.90;;;;;;4587806;19;20022;-30
2023/01/17 03:20:01;;;;;;;15.75;13.10;;;12.50;99.90;;;;;;4587699;19;20341;-30
2023/01/17 03:21:32;;;;;;;18.40;13.52;;;12.40;99.90;;;;;;4587092;19;20010;-30
2023/01/17 03:23:04;;;;;;;14.20;12.63;;;12.40;99.90;;;;;;4587083;19;20019;-30
2023/01/17 03:24:35;;;;;;;15.30;12.80;;;12.50;99.90;;;;;;4587409;19;20032;-31
2023/01/17 03:26:06;;;;;;;15.93;14.18;;;12.40;99.90;;;;;;4587915;19;20022;-32
2023/01/17 03:27:37;;;;;;;14.95;12.52;;;12.50;99.90;;;;;;4587005;19;20010;-30
2023/01/17 03:29:08;;;;;;;14.85;13.25;;;12.40;99.90;;;;;;4587530;19;20015;-30
2023/01/17 03:30:40;;;;;;;15.32;12.38;;;12.40;99.90;;;;;;4587437;19;20452;-30
2023/01/17 03:32:11;;;;;;;15.35;12.95;;;12.40;99.90;;;;;;4588141;19;20431;-31
2023/01/17 03:33:42;;;;;;;15.73;13.30;;;12.40;99.90;;;;;;4592325;19;20398;-31
2023/01/17 03:35:14;;;;;;;16.33;13.10;;;12.40;99.90;;;;;;4592178;19;20011;-33
2023/01/17 03:36:45;;;;;;;14.77;13.05;;;12.40;99.90;;;;;;4592048;19;20014;-31
2023/01/17 03:38:16;;;;;;;15.38;12.82;;;12.50;99.90;;;;;;4592708;19;20022;-33
2023/01/17 03:39:48;;;;;;;16.20;14.13;;;12.40;99.90;;;;;;4592016;19;20430;-31
2023/01/17 03:41:19;;;;;;;14.38;12.50;;;12.40;99.90;;;;;;4590907;19;20027;-31
2023/01/17 03:42:50;;;;;;;17.58;15.25;;;12.40;99.90;;;;;;4592165;19;20015;-30
2023/01/17 03:44:22;;;;;;;14.90;13.02;;;12.40;99.90;;;;;;4592135;19;20024;-30
2023/01/17 03:46:04;;;;;;;15.23;12.73;;;12.40;99.90;;;;;;4593584;19;20011;-32
2023/01/17 03:47:35;;;;;;;16.73;13.20;;;12.40;99.90;;;;;;4593018;19;20018;-30
2023/01/17 03:49:08;;;;;;;15.32;13.73;;;12.40;99.90;;;;;;4594032;19;20015;-30
2023/01/17 03:50:39;;;;;;;15.37;13.37;;;12.40;99.90;;;;;;4593105;19;20077;-31
2023/01/17 03:52:10;;;;;;;15.35;13.07;;;12.40;99.90;;;;;;4593828;19;20775;-31
2023/01/17 03:53:42;;;;;;;14.52;12.98;;;12.40;99.90;;;;;;4594071;19;20018;-30
2023/01/17 03:55:13;;;;;;;15.57;13.20;;;12.40;99.90;;;;;;4593137;19;20015;-31
2023/01/17 03:56:44;;;;;;;14.95;13.38;;;12.40;99.90;;;;;;4593890;19;20069;-30
2023/01/17 03:58:16;;;;;;;14.05;12.55;;;12.40;99.90;;;;;;4594454;19;20022;-33
2023/01/17 03:59:47;;;;;;;15.35;13.30;;;12.40;99.90;;;;;;4594183;19;20010;-31
2023/01/17 04:01:18;;;;;;;17.58;14.15;;;12.40;99.90;;;;;;4593307;19;20035;-30
2023/01/17 04:02:50;;;;;;;17.52;14.18;;;12.40;99.90;;;;;;4592662;19;20534;-33
2023/01/17 04:04:21;;;;;;;16.63;13.73;;;12.40;99.90;;;;;;4593430;19;20015;-31
2023/01/17 04:05:52;;;;;;;16.15;14.02;;;12.40;99.90;;;;;;4593954;19;20025;-31
2023/01/17 04:07:24;;;;;;;16.67;13.05;;;12.40;99.90;;;;;;4592715;19;20352;-32
2023/01/17 04:08:55;;;;;;;17.45;14.75;;;12.40;99.90;;;;;;4593807;19;20066;-30
2023/01/17 04:10:26;;;;;;;17.65;14.20;;;12.40;99.90;;;;;;4593689;19;20505;-31
2023/01/17 04:11:58;;;;;;;17.90;14.43;;;12.40;99.90;;;;;;4592908;19;20006;-30
2023/01/17 04:13:29;;;;;;;18.02;13.82;;;12.40;99.90;;;;;;4593843;19;20318;-31
2023/01/17 04:15:00;;;;;;;17.92;14.88;;;12.40;99.90;;;;;;4594333;19;20066;-29
2023/01/17 04:16:32;;;;;;;16.92;13.77;;;12.40;99.90;;;;;;4592306;19;20410;-30
2023/01/17 04:18:03;;;;;;;16.90;13.90;;;12.40;99.90;;;;;;4592408;19;20365;-33
2023/01/17 04:19:35;;;;;;;16.17;13.77;;;12.40;99.90;;;;;;4593185;19;20015;-33
2023/01/17 04:21:07;;;;;;;21.00;16.30;;;12.40;99.90;;;;;;4593046;19;20010;-30
2023/01/17 04:22:38;;;;;;;17.85;13.93;;;12.40;99.90;;;;;;4592878;19;20052;-30
2023/01/17 04:24:09;;;;;;;15.90;13.18;;;12.40;99.90;;;;;;4592528;19;20094;-30
2023/01/17 04:25:40;;;;;;;15.07;12.27;;;12.40;99.90;;;;;;4592392;19;20469;-32
2023/01/17 04:27:13;;;;;;;13.48;11.70;;;12.40;99.90;;;;;;4593013;19;20048;-30
2023/01/17 04:28:44;;;;;;;13.73;10.37;;;12.40;99.90;;;;;;4593297;19;20018;-31
2023/01/17 04:30:15;;;;;;;14.35;10.68;;;12.40;99.90;;;;;;4593705;19;20062;-33
2023/01/17 04:31:47;;;;;;;17.10;12.43;;;12.40;99.90;;;;;;4593904;19;20013;-30
2023/01/17 04:33:18;;;;;;;;;;;12.40;99.90;;;;;;4594211;19;20535;-31
2023/01/17 04:34:49;;;;;;;21.40;15.40;;;12.40;99.90;;;;;;4593340;19;19984;-31
2023/01/17 04:36:21;;;;;;;21.95;14.63;;;12.40;99.90;;;;;;4592410;19;20429;-30
2023/01/17 04:37:52;;;;;;;16.65;12.55;;;12.40;99.90;;;;;;4592885;19;20373;-32
2023/01/17 04:39:23;;;;;;;20.92;15.25;;;12.40;99.90;;;;;;4593204;19;20018;-30
2023/01/17 04:40:54;;;;;;;22.90;15.55;;;12.40;99.90;;;;;;4592922;19;20061;-30
2023/01/17 04:42:25;;;;;;;21.90;15.32;;;12.40;99.90;;;;;;4592044;19;20011;-33
2023/01/17 04:43:57;;;;;;;18.70;13.85;;;12.40;99.90;;;;;;4588850;19;20365;-30
2023/01/17 04:45:28;;;;;;;20.17;14.52;;;12.40;99.90;;;;;;4592348;19;20022;-31
2023/01/17 04:47:00;;;;;;;16.52;13.15;;;12.40;99.90;;;;;;4593504;19;20014;-33
2023/01/17 04:48:32;;;;;;;15.37;12.03;;;12.40;99.90;;;;;;4593803;19;20011;-31
2023/01/17 04:50:03;;;;;;;18.38;12.93;;;12.40;99.90;;;;;;4592552;19;20465;-33
2023/01/17 04:51:35;;;;;;;16.75;13.55;;;12.40;99.90;;;;;;4591669;19;20015;-30
2023/01/17 04:53:06;;;;;;;16.20;12.60;;;12.40;99.90;;;;;;4592823;19;20409;-31
2023/01/17 04:54:38;;;;;;;15.40;12.00;;;12.40;99.90;;;;;;4593499;19;20003;-29
2023/01/17 04:56:09;;;;;;;15.55;12.10;;;12.40;99.90;;;;;;4592901;19;20014;-33
2023/01/17 04:57:40;;;;;;;15.25;12.90;;;12.40;99.90;;;;;;4593152;19;20056;-33
2023/01/17 04:59:11;;;;;;;16.40;12.70;;;12.40;99.90;;;;;;4593279;19;20030;-31
2023/01/17 05:00:42;;;;;;;13.85;11.43;;;12.40;99.90;;;;;;4592694;19;20002;-32
2023/01/17 05:02:14;;;;;;;15.45;11.98;;;12.40;99.90;;;;;;4592846;19;20021;-30
2023/01/17 05:03:46;;;;;;;15.10;12.77;;;12.40;99.90;;;;;;4592624;19;20015;-31
2023/01/17 05:05:17;;;;;;;16.80;12.93;;;12.40;99.90;;;;;;4592829;19;20428;-30
2023/01/17 05:06:49;;;;;;;17.65;13.55;;;12.30;99.90;;;;;;4591493;19;20028;-32
2023/01/17 05:08:20;;;;;;;31.42;27.67;;;12.40;99.90;;;;;;4592348;19;20015;-32
2023/01/17 05:09:51;;;;;;;29.48;26.38;;;12.40;99.90;;;;;;4592616;19;20014;-30
2023/01/17 05:11:23;;;;;;;19.45;15.70;;;12.40;99.90;;;;;;4593201;19;20010;-29
2023/01/17 05:12:58;;;;;;;15.90;14.18;;;12.40;99.90;;;;;;4591190;19;20348;-32
2023/01/17 05:14:29;;;;;;;15.63;12.97;;;12.40;99.90;;;;;;4591645;19;20035;-33
2023/01/17 05:16:00;;;;;;;;;;;12.40;99.90;;;;;;4593164;19;20421;-31
2023/01/17 05:17:31;;;;;;;15.03;11.87;;;12.40;99.90;;;;;;4592630;19;20328;-31
2023/01/17 05:19:03;;;;;;;15.60;12.10;;;12.40;99.90;;;;;;4592187;19;20014;-30
2023/01/17 05:20:35;;;;;;;14.00;11.85;;;12.40;99.90;;;;;;4592441;19;20031;-32
2023/01/17 05:22:13;;;;;;;;;;;12.40;99.90;;;;;;4592078;19;20467;-32
2023/01/17 05:23:45;;;;;;;14.67;11.17;;;12.40;99.90;;;;;;4592555;19;19938;-32
2023/01/17 05:25:16;;;;;;;14.30;12.05;;;12.40;99.90;;;;;;4592074;19;20500;-33
2023/01/17 05:26:53;;;;;;;14.48;12.18;;;12.40;99.90;;;;;;4592585;19;20025;-31
2023/01/17 05:28:24;;;;;;;16.23;12.33;;;12.40;99.90;;;;;;4592559;19;20006;-31
2023/01/17 05:29:56;;;;;;;15.57;12.70;;;12.40;99.90;;;;;;4592384;19;20523;-31
2023/01/17 05:31:27;;;;;;;13.82;12.00;;;12.40;99.90;;;;;;4591931;19;20018;-29
2023/01/17 05:32:58;;;;;;;15.00;12.05;;;12.40;99.90;;;;;;4592559;19;20031;-32
2023/01/17 05:34:29;;;;;;;13.75;12.02;;;12.40;99.90;;;;;;4591467;19;20520;-31
2023/01/17 05:36:01;;;;;;;15.43;13.57;;;12.40;99.90;;;;;;4591515;19;20007;-30
2023/01/17 05:37:32;;;;;;;15.55;12.57;;;12.40;99.90;;;;;;4590877;19;20018;-32
2023/01/17 05:39:03;;;;;;;28.27;16.98;;;12.40;99.90;;;;;;4591643;19;20014;-32
2023/01/17 05:40:35;;;;;;;19.10;13.35;;;12.40;99.90;;;;;;4592274;19;20007;-31
2023/01/17 05:42:06;;;;;;;16.95;13.20;;;12.40;99.90;;;;;;4590400;19;20011;-30
2023/01/17 05:43:37;;;;;;;14.18;11.65;;;12.40;99.90;;;;;;4591154;19;20012;-29
2023/01/17 05:45:09;;;;;;;16.90;12.77;;;12.50;99.90;;;;;;4592014;19;20026;-32
2023/01/17 05:46:41;;;;;;;14.98;12.20;;;12.40;99.90;;;;;;4592170;19;20080;-31
2023/01/17 05:48:13;;;;;;;16.57;13.03;;;12.40;99.90;;;;;;4590651;19;20037;-30
2023/01/17 05:49:44;;;;;;;17.08;13.55;;;12.40;99.90;;;;;;4591320;19;20018;-30
2023/01/17 05:51:15;;;;;;;16.60;12.88;;;12.40;99.90;;;;;;4592104;19;20031;-30
2023/01/17 05:52:55;;;;;;;14.80;12.32;;;12.50;99.90;;;;;;4591844;19;20052;-29
2023/01/17 05:54:26;;;;;;;14.93;12.63;;;12.50;99.90;;;;;;4591472;19;20015;-31
2023/01/17 05:55:57;;;;;;;18.00;13.13;;;12.50;99.90;;;;;;4591976;19;20010;-30
2023/01/17 05:57:28;;;;;;;15.45;11.57;;;12.60;99.90;;;;;;4590465;19;20039;-32
2023/01/17 05:59:00;;;;;;;16.50;12.65;;;12.50;99.90;;;;;;4592012;19;20007;-30
2023/01/17 06:00:31;;;;;;;15.43;11.57;;;12.50;99.90;;;;;;4591560;19;20030;-30
2023/01/17 06:02:02;;;;;;;16.90;12.70;;;12.50;99.90;;;;;;4588462;19;20023;-31
2023/01/17 06:03:34;;;;;;;16.27;12.73;;;12.50;99.90;;;;;;4590160;19;20015;-30
2023/01/17 06:05:05;;;;;;;15.85;13.07;;;12.50;99.90;;;;;;4589831;19;20356;-31
2023/01/17 06:06:37;;;;;;;14.77;12.10;;;12.60;99.90;;;;;;4590017;19;20480;-31
2023/01/17 06:08:09;;;;;;;14.52;11.98;;;12.50;99.90;;;;;;4591014;19;20425;-30
2023/01/17 06:09:41;;;;;;;14.00;11.43;;;12.50;99.90;;;;;;4591524;19;20543;-30
2023/01/17 06:11:12;;;;;;;17.83;12.85;;;12.50;99.90;;;;;;4591158;19;20824;-33
2023/01/17 06:12:44;;;;;;;13.30;10.30;;;12.50;99.90;;;;;;4591282;19;20027;-32
2023/01/17 06:14:15;;;;;;;14.93;11.50;;;12.50;99.90;;;;;;4591571;19;20019;-30
2023/01/17 06:15:46;;;;;;;16.02;11.93;;;12.50;99.90;;;;;;4591590;19;20069;-32
2023/01/17 06:17:18;;;;;;;15.80;11.52;;;12.50;99.90;;;;;;4591051;19;20017;-31
2023/01/17 06:18:49;;;;;;;13.25;11.05;;;12.50;99.90;;;;;;4590032;19;20545;-30
2023/01/17 06:20:21;;;;;;;15.23;11.10;;;12.50;99.90;;;;;;4590951;19;20017;-29
2023/01/17 06:21:52;;;;;;;13.68;11.35;;;12.60;99.90;;;;;;4588884;19;20473;-29
2023/01/17 06:23:25;;;;;;;13.70;11.10;;;12.60;99.90;;;;;;4589652;19;20066;-28
2023/01/17 06:24:57;;;;;;;16.83;12.63;;;12.70;99.90;;;;;;4590742;19;20022;-31
2023/01/17 06:26:28;;;;;;;14.23;11.68;;;12.70;99.90;;;;;;4591606;19;20034;-29
2023/01/17 06:28:01;;;;;;;16.27;12.38;;;12.80;99.90;;;;;;4590866;19;20014;-32
2023/01/17 06:29:32;;;;;;;17.07;12.27;;;12.80;99.90;;;;;;4591044;19;20039;-32
2023/01/17 06:31:07;;;;;;;13.23;11.48;;;12.90;99.90;;;;;;4591047;19;20002;-29
2023/01/17 06:32:38;;;;;;;15.47;12.70;;;12.90;99.90;;;;;;4589735;19;20011;-29
2023/01/17 06:34:10;;;;;;;14.00;12.13;;;12.90;99.90;;;;;;4589666;19;20479;-30
2023/01/17 06:35:48;;;;;;;16.52;13.13;;;12.90;99.90;;;;;;4589919;19;20010;-32
2023/01/17 06:37:19;;;;;;;16.67;13.33;;;12.90;99.90;;;;;;4590706;19;20011;-29
2023/01/17 06:38:51;;;;;;;;;;;12.90;99.90;;;;;;4591723;19;20022;-31
2023/01/17 06:40:22;;;;;;;17.77;14.13;;;12.90;99.90;;;;;;4590597;19;19915;-30
2023/01/17 06:41:53;;;;;;;17.42;15.02;;;12.90;99.90;;;;;;4589674;19;20369;-31
2023/01/17 06:43:27;;;;;;;19.67;15.77;;;12.90;99.90;;;;;;4591383;19;20011;-33
2023/01/17 06:44:58;;;;;;;19.13;14.60;;;12.90;99.90;;;;;;4591201;19;20003;-30
2023/01/17 06:46:29;;;;;;;16.48;12.75;;;12.90;99.90;;;;;;4590457;19;20487;-32
2023/01/17 06:48:02;;;;;;;14.73;11.75;;;12.90;99.90;;;;;;4590986;19;20019;-30
2023/01/17 06:49:33;;;;;;;17.17;13.20;;;13.00;99.90;;;;;;4589926;19;20013;-31
2023/01/17 06:51:05;;;;;;;19.45;14.27;;;13.00;99.90;;;;;;4589676;19;20006;-30
2023/01/17 06:52:36;;;;;;;22.92;16.90;;;13.00;99.90;;;;;;4590461;19;20023;-32
2023/01/17 06:54:08;;;;;;;17.17;13.13;;;12.90;99.90;;;;;;4590295;19;20018;-31
2023/01/17 06:55:42;;;;;;;16.87;13.40;;;12.80;99.90;;;;;;4590388;19;20348;-31
2023/01/17 06:57:15;;;;;;;16.50;12.73;;;12.90;99.90;;;;;;4588131;19;20450;-30
2023/01/17 06:58:49;;;;;;;16.37;13.03;;;12.80;99.90;;;;;;4588966;19;20395;-30
2023/01/17 07:00:21;;;;;;;13.93;11.80;;;12.80;99.90;;;;;;4590109;19;20011;-31
2023/01/17 07:01:52;;;;;;;16.25;11.82;;;12.80;99.90;;;;;;4589680;19;20094;-32
2023/01/17 07:03:25;;;;;;;16.85;12.55;;;12.70;99.90;;;;;;4588886;19;20014;-31
2023/01/17 07:04:56;;;;;;;14.40;11.53;;;12.70;99.90;;;;;;4589245;19;20103;-32
2023/01/17 07:06:27;;;;;;;15.02;12.07;;;12.70;99.90;;;;;;4590069;19;20023;-31
2023/01/17 07:08:00;;;;;;;15.40;12.40;;;12.70;99.90;;;;;;4589423;19;20005;-31
2023/01/17 07:09:31;;;;;;;17.70;12.53;;;12.70;99.90;;;;;;4589938;19;20353;-31
2023/01/17 07:11:04;;;;;;;17.08;12.70;;;12.70;99.90;;;;;;4590079;19;20019;-31
2023/01/17 07:12:35;;;;;;;14.83;11.23;;;12.70;99.90;;;;;;4589159;19;20032;-30
2023/01/17 07:14:13;;;;;;;13.85;10.95;;;12.70;99.90;;;;;;4590077;19;20022;-31
2023/01/17 07:15:45;;;;;;;15.73;12.27;;;12.80;99.90;;;;;;4589933;19;20027;-31
2023/01/17 07:17:16;;;;;;;15.07;12.25;;;12.80;99.90;;;;;;4590183;19;20033;-31
2023/01/17 07:18:47;;;;;;;16.45;12.88;;;12.80;99.90;;;;;;4590144;19;20055;-29
2023/01/17 07:20:18;;;;;;;24.00;21.73;;;12.70;99.90;;;;;;4589819;19;20018;-33
2023/01/17 07:21:51;;;;;;;25.65;23.15;;;12.70;99.90;;;;;;4588972;19;20021;-31
2023/01/17 07:23:22;;;;;;;21.43;19.13;;;12.70;99.90;;;;;;4589079;19;20025;-32
2023/01/17 07:24:57;;;;;;;35.17;26.20;;;12.70;99.90;;;;;;4590403;19;20390;-30
2023/01/17 07:26:28;;;;;;;21.80;14.73;;;12.70;99.90;;;;;;4588559;19;20018;-31
2023/01/17 07:27:59;;;;;;;18.73;12.82;;;12.60;99.90;;;;;;4588707;19;20425;-30
2023/01/17 07:29:31;;;;;;;18.25;12.45;;;12.60;99.90;;;;;;4589803;19;20035;-31
2023/01/17 07:31:06;;;;;;;20.88;12.75;;;12.70;99.90;;;;;;4588719;19;20373;-30
2023/01/17 07:32:51;;;;;;;20.33;13.20;;;12.70;99.90;;;;;;4589471;19;20011;-31
2023/01/17 07:34:23;;;;;;;16.73;12.40;;;12.60;99.90;;;;;;4588385;19;20476;-31
2023/01/17 07:35:55;;;;;;;19.47;12.27;;;12.60;99.90;;;;;;4588301;19;20021;-31
2023/01/17 07:37:26;;;;;;;17.65;12.90;;;12.50;99.90;;;;;;4589704;19;20025;-30
2023/01/17 07:39:01;;;;;;;19.50;16.88;;;12.50;99.90;;;;;;4588683;19;20354;-32
2023/01/17 07:40:32;;;;;;;34.73;31.13;;;12.50;99.90;;;;;;4587087;19;20026;-32
2023/01/17 07:42:03;;;;;;;26.40;20.77;;;12.50;99.90;;;;;;4587624;19;20358;-31
2023/01/17 07:43:35;;;;;;;26.15;15.48;;;12.50;99.90;;;;;;4588551;19;20019;-31
2023/01/17 07:45:07;;;;;;;17.02;11.88;;;12.40;99.90;;;;;;4589144;19;20338;-31
2023/01/17 07:46:39;;;;;;;18.80;12.60;;;12.40;99.90;;;;;;4588524;19;20011;-32
2023/01/17 07:48:10;;;;;;;19.63;12.90;;;12.40;99.90;;;;;;4588679;19;20086;-31
2023/01/17 07:49:41;;;;;;;14.77;11.65;;;12.40;99.90;;;;;;4588258;19;20011;-31
2023/01/17 07:51:12;;;;;;;19.17;13.38;;;12.40;99.90;;;;;;4588900;19;20006;-30
2023/01/17 07:52:48;;;;;;;17.60;12.27;;;12.40;99.90;;;;;;4589634;19;20070;-31
2023/01/17 07:54:19;;;;;;;18.17;12.63;;;12.40;99.90;;;;;;4588483;19;19998;-31
2023/01/17 07:55:51;;;;;;;17.40;12.65;;;12.40;99.90;;;;;;4588331;19;20433;-30
2023/01/17 07:57:22;;;;;;;18.02;13.25;;;12.40;99.90;;;;;;4588075;19;20483;-31
2023/01/17 07:58:53;;;;;;;18.38;11.68;;;12.40;99.90;;;;;;4588999;19;20015;-31
2023/01/17 08:00:26;;;;;;;25.05;16.75;;;12.50;99.90;;;;;;4588908;19;20043;-31
2023/01/17 08:01:57;;;;;;;25.73;19.53;;;12.60;99.90;;;;;;4588235;19;20015;-31
2023/01/17 08:03:31;;;;;;;23.00;20.33;;;12.60;99.90;;;;;;4588951;19;20596;-31
2023/01/17 08:05:02;;;;;;;22.70;20.40;;;12.60;99.90;;;;;;4588744;19;20018;-30
2023/01/17 08:06:33;;;;;;;25.13;18.65;;;12.70;99.90;;;;;;4589430;19;20480;-32
2023/01/17 08:08:05;;;;;;;27.10;16.17;;;12.70;99.90;;;;;;4589298;19;20082;-30
2023/01/17 08:09:36;;;;;;;22.80;14.02;;;12.60;99.90;;;;;;4588171;19;20460;-30
2023/01/17 08:11:08;;;;;;;20.92;12.40;;;12.60;99.90;;;;;;4589127;19;20094;-29
2023/01/17 08:12:39;;;;;;;19.67;13.95;;;12.60;99.90;;;;;;4589546;19;20504;-29
2023/01/17 08:14:10;;;;;;;21.17;12.98;;;12.70;99.90;;;;;;4589129;19;20015;-29
2023/01/17 08:15:41;;;;;;;14.15;11.20;;;12.70;99.90;;;;;;4589272;19;20015;-30
2023/01/17 08:17:13;;;;;;;15.40;11.48;;;12.70;99.90;;;;;;4589378;19;20002;-31
2023/01/17 08:18:44;;;;;;;18.23;11.70;;;12.80;99.90;;;;;;4589527;19;20006;-30
2023/01/17 08:20:16;;;;;;;17.40;12.43;;;12.80;99.90;;;;;;4592838;19;20078;-31
2023/01/17 08:21:47;;;;;;;18.92;13.45;;;12.80;99.90;;;;;;4592511;19;20015;-31
2023/01/17 08:23:18;;;;;;;21.15;14.20;;;12.70;99.90;;;;;;4591917;19;20026;-31
2023/01/17 08:24:50;;;;;;;22.67;15.30;;;12.70;99.90;;;;;;4592194;19;20018;-31
2023/01/17 08:26:22;;;;;;;18.85;13.85;;;12.70;99.90;;;;;;4592079;19;20500;-31
2023/01/17 08:27:56;;;;;;;17.40;13.10;;;12.70;99.90;;;;;;4593153;19;20058;-30
2023/01/17 08:29:28;;;;;;;18.13;13.50;;;12.70;99.90;;;;;;4593896;19;20475;-31
2023/01/17 08:31:07;;;;;;;22.67;14.15;;;12.70;99.90;;;;;;4593051;19;20029;-31
2023/01/17 08:32:39;;;;;;;24.83;13.67;;;12.70;99.90;;;;;;4592202;19;20018;-31
2023/01/17 08:34:12;;;;;;;19.03;12.63;;;12.70;99.90;;;;;;4592051;19;20436;-30
2023/01/17 08:35:53;;;;;;;18.87;12.03;;;12.60;99.90;;;;;;4593012;19;20017;-31
2023/01/17 08:37:24;;;;;;;18.33;11.23;;;12.60;99.90;;;;;;4592269;19;20398;-30
2023/01/17 08:38:56;;;;;;;17.45;11.20;;;12.60;99.90;;;;;;4593064;19;20519;-30
2023/01/17 08:40:28;;;;;;;21.83;13.18;;;12.60;99.90;;;;;;4592282;19;20524;-30
2023/01/17 08:41:59;;;;;;;14.80;10.87;;;12.60;99.90;;;;;;4592075;19;20022;-30
2023/01/17 08:43:30;;;;;;;15.77;12.18;;;12.60;99.90;;;;;;4591879;19;20011;-31
2023/01/17 08:45:03;;;;;;;18.63;13.98;;;12.60;99.90;;;;;;4592191;19;20018;-31
2023/01/17 08:46:37;;;;;;;20.30;12.37;;;12.60;99.90;;;;;;4591874;19;20138;-31
2023/01/17 08:48:08;;;;;;;18.77;12.27;;;12.50;99.90;;;;;;4593065;19;20014;-32
2023/01/17 08:49:40;;;;;;;17.73;14.70;;;12.50;99.90;;;;;;4592883;19;20463;-30
2023/01/17 08:51:11;;;;;;;17.23;14.38;;;12.50;99.90;;;;;;4593099;19;20006;-31
2023/01/17 08:52:43;;;;;;;16.20;12.87;;;12.60;99.90;;;;;;4592024;19;20031;-30
2023/01/17 08:54:15;;;;;;;;;;;12.50;99.90;;;;;;4593418;19;20515;-31
2023/01/17 08:55:46;;;;;;;18.00;13.48;;;12.50;99.90;;;;;;4591561;19;20241;-30
2023/01/17 08:57:19;;;;;;;;;;;12.50;99.90;;;;;;4593266;19;20018;-31
2023/01/17 08:58:50;;;;;;;24.42;15.10;;;12.50;99.90;;;;;;4593499;19;19917;-31
2023/01/17 09:00:21;;;;;;;19.92;13.60;;;12.50;99.90;;;;;;4593370;19;20006;-31
2023/01/17 09:02:00;;;;;;;16.65;12.32;;;12.50;99.90;;;;;;4591551;19;20007;-30
2023/01/17 09:03:31;;;;;;;17.70;11.63;;;12.50;99.90;;;;;;4592936;19;20022;-32
2023/01/17 09:05:03;;;;;;;;;;;12.50;99.90;;;;;;4594067;19;20003;-30
2023/01/17 09:06:39;;;;;;;19.67;11.32;;;12.50;99.90;;;;;;4592887;19;19926;-30
2023/01/17 09:08:10;;;;;;;14.27;10.37;;;12.50;99.90;;;;;;4592496;19;20017;-31
2023/01/17 09:09:41;;;;;;;12.68;9.38;;;12.50;99.90;;;;;;4591529;19;20433;-31
2023/01/17 09:11:14;;;;;;;13.30;9.35;;;12.50;99.90;;;;;;4592361;19;20031;-31
2023/01/17 09:12:45;;;;;;;14.20;10.13;;;12.50;99.90;;;;;;4591516;19;20012;-32
2023/01/17 09:14:16;;;;;;;15.73;10.27;;;12.50;99.90;;;;;;4591917;19;20015;-32
2023/01/17 09:15:48;;;;;;;19.08;11.60;;;12.50;99.90;;;;;;4593049;19;20031;-29